createdAt,value
2024-05-09T00:00:45.996Z,6.68
2024-05-09T00:03:34.096Z,5.95
2024-05-09T00:06:02.757Z,9.13
2024-05-09T00:08:30.972Z,11.55
2024-05-09T00:10:59.518Z,9.77
2024-05-09T00:13:27.515Z,10.90
2024-05-09T00:15:55.905Z,22.90
2024-05-09T00:18:24.241Z,24.63
2024-05-09T00:20:52.929Z,14.35
2024-05-09T00:23:21.006Z,13.48
2024-05-09T00:25:49.462Z,23.67
2024-05-09T00:28:17.353Z,8.52
2024-05-09T00:30:45.690Z,12.05
2024-05-09T00:33:13.993Z,13.15
2024-05-09T00:35:42.727Z,12.37
2024-05-09T00:38:11.274Z,10.13
2024-05-09T00:40:42.416Z,13.37
2024-05-09T00:43:12.940Z,13.23
2024-05-09T00:45:42.552Z,14.02
2024-05-09T00:48:13.289Z,14.43
2024-05-09T00:50:45.122Z,12.70
2024-05-09T00:53:13.996Z,18.67
2024-05-09T00:55:42.952Z,25.00
2024-05-09T00:58:11.775Z,16.27
2024-05-09T01:00:41.688Z,20.17
2024-05-09T01:03:12.497Z,19.70
2024-05-09T01:05:45.637Z,34.92
2024-05-09T01:08:13.999Z,25.42
2024-05-09T01:10:44.971Z,11.05
2024-05-09T01:13:14.205Z,12.98
2024-05-09T01:15:42.893Z,10.73
2024-05-09T01:18:12.751Z,7.40
2024-05-09T01:20:44.591Z,4.97
2024-05-09T01:23:15.387Z,5.15
2024-05-09T01:25:46.561Z,11.95
2024-05-09T01:28:16.455Z,15.65
2024-05-09T01:33:13.425Z,12.10
2024-05-09T01:35:43.010Z,14.57
2024-05-09T01:38:17.525Z,10.73
2024-05-09T01:40:47.155Z,10.95
2024-05-09T01:43:16.096Z,11.00
2024-05-09T01:45:44.405Z,11.43
2024-05-09T01:48:12.506Z,12.20
2024-05-09T01:50:42.866Z,17.38
2024-05-09T01:53:12.509Z,22.23
2024-05-09T01:58:09.917Z,13.75
2024-05-09T02:00:42.527Z,16.25
2024-05-09T02:03:15.281Z,13.45
2024-05-09T02:05:46.894Z,11.52
2024-05-09T02:08:17.307Z,14.80
2024-05-09T02:10:47.589Z,13.10
2024-05-09T02:13:16.577Z,16.25
2024-05-09T02:15:45.171Z,12.32
2024-05-09T02:18:13.712Z,10.18
2024-05-09T02:20:43.288Z,11.10
2024-05-09T02:23:12.260Z,8.43
2024-05-09T02:25:42.061Z,12.27
2024-05-09T02:28:10.287Z,15.27
2024-05-09T02:30:41.384Z,15.15
2024-05-09T02:33:12.966Z,15.02
2024-05-09T02:35:44.060Z,13.13
2024-05-09T02:40:41.265Z,11.55
2024-05-09T02:43:11.096Z,15.27
2024-05-09T02:45:40.721Z,15.25
2024-05-09T02:48:11.729Z,16.88
2024-05-09T02:50:41.207Z,19.38
2024-05-09T02:53:10.077Z,21.98
2024-05-09T02:55:42.647Z,14.35
2024-05-09T02:58:11.238Z,14.45
2024-05-09T03:00:42.068Z,14.90
2024-05-09T03:03:13.932Z,15.32
2024-05-09T03:05:45.408Z,14.57
2024-05-09T03:08:13.895Z,11.50
2024-05-09T03:10:42.827Z,11.10
2024-05-09T03:13:12.756Z,10.52
2024-05-09T03:15:42.744Z,8.13
2024-05-09T03:18:11.672Z,12.63
2024-05-09T03:20:40.856Z,7.60
2024-05-09T03:23:10.042Z,5.15
2024-05-09T03:25:39.286Z,3.90
2024-05-09T03:28:07.519Z,5.22
2024-05-09T03:30:41.299Z,4.15
2024-05-09T03:33:12.931Z,7.45
2024-05-09T03:35:42.393Z,5.63
2024-05-09T03:38:10.363Z,5.93
2024-05-09T03:40:44.859Z,3.92
2024-05-09T03:43:13.509Z,24.95
2024-05-09T03:45:42.948Z,46.42
2024-05-09T03:48:11.262Z,30.85
2024-05-09T03:50:40.034Z,14.02
2024-05-09T03:53:11.087Z,8.88
2024-05-09T03:55:39.942Z,7.10
2024-05-09T03:58:08.299Z,7.97
2024-05-09T04:00:39.501Z,5.67
2024-05-09T04:03:11.139Z,8.38
2024-05-09T04:05:42.744Z,5.88
2024-05-09T04:08:16.712Z,4.15
2024-05-09T04:10:45.189Z,6.15
2024-05-09T04:13:13.145Z,5.50
2024-05-09T04:15:41.740Z,5.15
2024-05-09T04:18:09.801Z,5.05
2024-05-09T04:20:40.617Z,3.53
2024-05-09T04:23:13.804Z,3.28
2024-05-09T04:25:45.076Z,7.95
2024-05-09T04:28:13.758Z,7.57
2024-05-09T04:30:42.769Z,3.15
2024-05-09T04:33:13.339Z,3.95
2024-05-09T04:35:44.053Z,6.72
2024-05-09T04:38:16.068Z,4.22
2024-05-09T04:40:44.812Z,10.18
2024-05-09T04:43:17.538Z,4.22
2024-05-09T04:45:46.437Z,4.30
2024-05-09T04:48:14.610Z,3.42
2024-05-09T04:50:43.172Z,7.10
2024-05-09T04:53:15.602Z,4.75
2024-05-09T04:55:44.058Z,3.38
2024-05-09T04:58:12.524Z,7.82
2024-05-09T05:00:41.765Z,3.35
2024-05-09T05:03:13.869Z,2.93
2024-05-09T05:05:46.036Z,3.25
2024-05-09T05:08:15.681Z,3.08
2024-05-09T05:10:44.893Z,4.88
2024-05-09T05:13:17.741Z,3.53
2024-05-09T05:15:47.468Z,4.70
2024-05-09T05:18:16.273Z,9.45
2024-05-09T05:20:45.118Z,9.13
2024-05-09T05:23:13.800Z,4.35
2024-05-09T05:25:42.696Z,5.68
2024-05-09T05:28:10.898Z,4.35
2024-05-09T05:30:39.539Z,6.47
2024-05-09T05:33:08.016Z,4.80
2024-05-09T05:35:37.094Z,6.07
2024-05-09T05:38:05.271Z,4.03
2024-05-09T05:40:37.070Z,5.43
2024-05-09T05:43:08.570Z,7.55
2024-05-09T05:45:37.056Z,9.55
2024-05-09T05:48:06.330Z,3.50
2024-05-09T05:50:37.611Z,4.78
2024-05-09T05:53:08.413Z,5.78
2024-05-09T05:55:37.958Z,5.82
2024-05-09T05:58:06.207Z,4.72
2024-05-09T06:00:38.521Z,5.88
2024-05-09T06:03:09.623Z,5.18
2024-05-09T06:05:40.448Z,6.45
2024-05-09T06:08:09.420Z,5.50
2024-05-09T06:10:40.244Z,5.78
2024-05-09T06:13:11.661Z,4.60
2024-05-09T06:15:41.102Z,6.03
2024-05-09T06:18:10.831Z,4.55
2024-05-09T06:20:43.290Z,6.25
2024-05-09T06:23:12.865Z,4.47
2024-05-09T06:25:42.527Z,3.53
2024-05-09T06:28:10.892Z,2.58
2024-05-09T06:30:42.435Z,4.85
2024-05-09T06:33:14.415Z,2.67
2024-05-09T06:35:45.202Z,4.28
2024-05-09T06:38:13.420Z,3.38
2024-05-09T06:40:43.820Z,5.65
2024-05-09T06:43:18.152Z,6.13
2024-05-09T06:45:49.188Z,7.80
2024-05-09T06:48:21.272Z,5.47
2024-05-09T06:50:50.572Z,11.10
2024-05-09T06:53:21.354Z,3.33
2024-05-09T06:55:50.204Z,3.78
2024-05-09T06:58:18.144Z,3.03
2024-05-09T07:00:46.660Z,2.60
2024-05-09T07:03:18.151Z,3.92
2024-05-09T07:05:49.166Z,2.55
2024-05-09T07:08:18.437Z,3.53
2024-05-09T07:10:46.784Z,7.43
2024-05-09T07:13:15.948Z,4.57
2024-05-09T07:15:44.252Z,3.85
2024-05-09T07:18:13.968Z,4.35
2024-05-09T07:20:42.710Z,4.70
2024-05-09T07:23:11.638Z,3.75
2024-05-09T07:25:40.422Z,4.85
2024-05-09T07:28:12.318Z,4.57
2024-05-09T07:30:40.297Z,3.17
2024-05-09T07:33:09.031Z,2.60
2024-05-09T07:35:37.611Z,3.00
2024-05-09T07:38:06.227Z,2.50
2024-05-09T07:40:36.835Z,5.15
2024-05-09T07:43:05.889Z,4.20
2024-05-09T07:53:37.115Z,6.20
2024-05-09T07:55:59.226Z,6.03
2024-05-09T07:58:28.072Z,4.13
2024-05-09T08:00:56.309Z,3.08
2024-05-09T08:03:24.857Z,4.95
2024-05-09T08:05:54.402Z,5.30
2024-05-09T08:08:23.437Z,6.53
2024-05-09T08:10:51.735Z,11.48
2024-05-09T08:13:20.221Z,4.40
2024-05-09T08:15:49.836Z,3.63
2024-05-09T08:18:19.093Z,3.75
2024-05-09T08:20:49.309Z,4.32
2024-05-09T08:23:18.134Z,5.50
2024-05-09T08:25:46.120Z,3.92
2024-05-09T08:28:15.342Z,4.97
2024-05-09T08:30:44.309Z,10.40
2024-05-09T08:33:13.040Z,4.82
2024-05-09T08:35:41.266Z,3.25
2024-05-09T08:38:09.896Z,5.03
2024-05-09T08:40:38.460Z,7.97
2024-05-09T08:43:10.048Z,8.13
2024-05-09T08:45:43.658Z,14.02
2024-05-09T08:48:15.829Z,3.53
2024-05-09T08:50:45.601Z,4.32
2024-05-09T08:53:15.529Z,4.68
2024-05-09T08:55:44.501Z,4.87
2024-05-09T08:58:18.414Z,4.57
2024-05-09T09:00:46.974Z,6.85
2024-05-09T09:03:20.073Z,5.80
2024-05-09T09:06:03.093Z,4.53
2024-05-09T09:08:31.623Z,5.55
2024-05-09T09:10:59.827Z,3.33
2024-05-09T09:13:28.669Z,3.33
2024-05-09T09:16:00.301Z,17.20
2024-05-09T09:18:30.398Z,5.03
2024-05-09T09:23:29.942Z,5.65
2024-05-09T09:26:01.757Z,6.85
2024-05-09T09:28:30.419Z,7.13
2024-05-09T09:31:03.392Z,6.80
2024-05-09T09:33:32.651Z,8.25
2024-05-09T09:36:01.474Z,7.17
2024-05-09T09:38:32.217Z,4.60
2024-05-09T09:41:02.412Z,3.83
2024-05-09T09:43:31.717Z,4.13
2024-05-09T09:46:02.170Z,6.90
2024-05-09T09:48:32.179Z,9.90
2024-05-09T09:51:00.535Z,12.23
2024-05-09T09:53:29.457Z,3.90
2024-05-09T09:55:57.853Z,6.82
2024-05-09T09:58:28.561Z,9.07
2024-05-09T10:00:56.986Z,6.85
2024-05-09T10:03:25.781Z,4.03
2024-05-09T10:05:54.422Z,6.05
2024-05-09T10:08:24.063Z,7.10
2024-05-09T10:10:52.461Z,4.83
2024-05-09T10:13:21.289Z,4.30
2024-05-09T10:15:54.107Z,5.63
2024-05-09T10:18:29.186Z,4.20
2024-05-09T10:21:00.039Z,2.38
2024-05-09T10:23:28.449Z,3.78
2024-05-09T10:25:57.300Z,5.65
2024-05-09T10:28:29.201Z,4.25
2024-05-09T10:31:00.987Z,5.07
2024-05-09T10:33:39.296Z,3.10
2024-05-09T10:36:14.362Z,2.20
2024-05-09T10:38:43.783Z,3.60
2024-05-09T10:41:12.056Z,3.55
2024-05-09T10:43:43.872Z,4.20
2024-05-09T10:46:12.365Z,2.17
2024-05-09T10:48:42.850Z,6.60
2024-05-09T10:51:11.275Z,3.63
2024-05-09T10:53:43.474Z,5.70
2024-05-09T10:56:11.866Z,4.55
2024-05-09T10:58:40.109Z,4.63
2024-05-09T11:01:09.237Z,2.90
2024-05-09T11:03:39.161Z,5.47
2024-05-09T11:06:09.953Z,3.17
2024-05-09T11:08:38.859Z,2.75
2024-05-09T11:11:08.179Z,4.78
2024-05-09T11:13:38.278Z,3.22
2024-05-09T11:16:07.750Z,4.45
2024-05-09T11:21:13.542Z,5.38
2024-05-09T11:23:42.330Z,4.13
2024-05-09T11:26:11.163Z,3.53
2024-05-09T11:28:39.725Z,3.63
2024-05-09T11:31:09.060Z,7.60
2024-05-09T11:33:39.071Z,3.28
2024-05-09T11:36:07.995Z,4.65
2024-05-09T11:38:36.740Z,6.68
2024-05-09T11:41:05.448Z,8.52
2024-05-09T11:43:34.212Z,9.10
2024-05-09T11:46:03.608Z,4.82
2024-05-09T11:48:32.829Z,4.82
2024-05-09T11:51:00.875Z,18.65
2024-05-09T11:53:29.254Z,4.13
2024-05-09T11:55:57.180Z,6.68
2024-05-09T11:58:25.624Z,3.35
2024-05-09T12:00:53.701Z,4.65
2024-05-09T12:03:22.361Z,4.10
2024-05-09T12:05:50.548Z,4.40
2024-05-09T12:08:18.986Z,2.22
2024-05-09T12:10:47.666Z,4.28
2024-05-09T12:13:16.160Z,3.92
2024-05-09T12:15:44.241Z,4.88
2024-05-09T12:18:12.760Z,4.47
2024-05-09T12:20:40.966Z,5.05
2024-05-09T12:23:10.422Z,2.63
2024-05-09T12:25:39.845Z,3.90
2024-05-09T12:28:09.203Z,3.13
2024-05-09T12:30:40.138Z,4.00
2024-05-09T12:33:13.509Z,5.47
2024-05-09T12:35:44.507Z,4.30
2024-05-09T12:38:18.821Z,3.78
2024-05-09T12:40:47.082Z,5.93
2024-05-09T12:43:15.720Z,3.20
2024-05-09T12:45:44.004Z,7.30
2024-05-09T12:48:13.337Z,4.18
2024-05-09T12:50:42.298Z,4.05
2024-05-09T12:53:10.778Z,4.57
2024-05-09T12:55:45.135Z,8.57
2024-05-09T12:58:22.777Z,6.88
2024-05-09T13:00:52.626Z,4.90
2024-05-09T13:03:22.289Z,6.40
2024-05-09T13:05:51.233Z,1.77
2024-05-09T13:08:20.463Z,3.20
2024-05-09T13:10:48.920Z,3.63
2024-05-09T13:13:17.669Z,3.08
2024-05-09T13:15:45.655Z,2.47
2024-05-09T13:18:14.293Z,2.40
2024-05-09T13:20:42.378Z,3.53
2024-05-09T13:23:10.770Z,8.05
2024-05-09T13:25:39.032Z,5.25
2024-05-09T13:28:08.145Z,3.65
2024-05-09T13:30:40.650Z,3.35
2024-05-09T13:33:12.203Z,4.53
2024-05-09T13:35:47.641Z,4.80
2024-05-09T13:38:20.749Z,6.05
2024-05-09T13:40:50.253Z,4.25
2024-05-09T13:45:47.507Z,3.25
2024-05-09T13:48:16.099Z,4.32
2024-05-09T13:50:44.324Z,13.00
2024-05-09T13:53:12.660Z,3.00
2024-05-09T13:55:41.055Z,7.63
2024-05-09T13:58:34.456Z,2.85
2024-05-09T14:01:10.461Z,6.15
2024-05-09T14:03:42.047Z,4.50
2024-05-09T14:06:12.993Z,2.13
2024-05-09T14:08:41.746Z,5.95
2024-05-09T14:11:09.779Z,6.90
2024-05-09T14:13:38.551Z,5.13
2024-05-09T14:16:07.987Z,7.32
2024-05-09T14:18:36.608Z,6.60
2024-05-09T14:21:04.648Z,8.65
2024-05-09T14:23:33.054Z,6.78
2024-05-09T14:26:01.004Z,2.17
2024-05-09T14:28:29.436Z,9.10
2024-05-09T14:30:57.466Z,3.17
2024-05-09T14:33:27.156Z,8.60
2024-05-09T14:35:55.433Z,3.67
2024-05-09T14:38:24.608Z,3.33
2024-05-09T14:40:53.114Z,1.80
2024-05-09T14:43:21.724Z,3.90
2024-05-09T14:45:49.979Z,3.13
2024-05-09T14:48:20.098Z,4.78
2024-05-09T14:53:16.805Z,21.33
2024-05-09T14:55:45.327Z,10.85
2024-05-09T14:58:14.058Z,5.17
2024-05-09T15:00:46.645Z,6.82
2024-05-09T15:03:22.583Z,2.88
2024-05-09T15:05:51.589Z,6.40
2024-05-09T15:08:20.632Z,3.75
2024-05-09T15:10:50.255Z,5.28
2024-05-09T15:13:19.758Z,2.72
2024-05-09T15:15:48.320Z,8.43
2024-05-09T15:18:17.392Z,8.30
2024-05-09T15:20:45.804Z,2.70
2024-05-09T15:23:14.423Z,4.85
2024-05-09T15:25:44.322Z,6.97
2024-05-09T15:28:12.801Z,4.05
2024-05-09T15:30:44.147Z,7.88
2024-05-09T15:33:15.329Z,3.05
2024-05-09T15:35:43.270Z,5.75
2024-05-09T15:38:11.741Z,8.98
2024-05-09T15:40:40.974Z,7.25
2024-05-09T15:43:11.282Z,6.97
2024-05-09T15:45:41.101Z,4.57
2024-05-09T15:48:10.752Z,9.13
2024-05-09T15:50:41.675Z,4.05
2024-05-09T15:53:13.598Z,8.10
2024-05-09T15:58:10.668Z,24.38
2024-05-09T16:00:42.117Z,5.65
2024-05-09T16:03:13.861Z,9.38
2024-05-09T16:05:46.983Z,11.55
2024-05-09T16:08:16.619Z,6.75
2024-05-09T16:10:48.262Z,6.60
2024-05-09T16:13:17.565Z,5.40
2024-05-09T16:15:46.391Z,6.18
2024-05-09T16:18:15.081Z,8.07
2024-05-09T16:20:44.861Z,6.72
2024-05-09T16:23:14.823Z,7.82
2024-05-09T16:25:45.511Z,4.80
2024-05-09T16:28:14.102Z,5.47
2024-05-09T16:30:42.342Z,9.50
2024-05-09T16:33:11.979Z,9.68
2024-05-09T16:35:40.294Z,6.88
2024-05-09T16:38:08.966Z,7.13
2024-05-09T16:40:40.406Z,7.82
2024-05-09T16:43:11.043Z,9.27
2024-05-09T16:45:40.128Z,5.88
2024-05-09T16:48:09.209Z,8.57
2024-05-09T16:50:37.428Z,7.78
2024-05-09T16:53:07.164Z,15.57
2024-05-09T16:55:36.325Z,10.18
2024-05-09T16:58:06.998Z,9.52
2024-05-09T17:00:41.079Z,7.03
2024-05-09T17:03:14.778Z,7.43
2024-05-09T17:05:46.443Z,6.78
2024-05-09T17:08:16.532Z,9.52
2024-05-09T17:10:45.859Z,13.82
2024-05-09T17:13:14.576Z,8.70
2024-05-09T17:15:42.719Z,10.75
2024-05-09T17:18:11.183Z,8.23
2024-05-09T17:20:39.186Z,5.72
2024-05-09T17:23:14.035Z,7.85
2024-05-09T17:25:42.984Z,8.95
2024-05-09T17:28:12.295Z,11.63
2024-05-09T17:30:42.079Z,7.90
2024-05-09T17:33:12.845Z,12.60
2024-05-09T17:35:42.639Z,7.88
2024-05-09T17:38:10.958Z,6.55
2024-05-09T17:40:39.759Z,8.27
2024-05-09T17:43:10.231Z,8.98
2024-05-09T17:45:42.617Z,7.57
2024-05-09T17:48:12.057Z,7.78
2024-05-09T17:50:41.593Z,14.07
2024-05-09T17:53:11.243Z,11.77
2024-05-09T17:55:39.904Z,8.20
2024-05-09T17:58:08.662Z,8.27
2024-05-09T18:00:40.160Z,8.40
2024-05-09T18:03:12.664Z,6.13
2024-05-09T18:05:42.898Z,6.43
2024-05-09T18:08:13.119Z,6.40
2024-05-09T18:10:41.756Z,8.20
2024-05-09T18:13:11.540Z,6.03
2024-05-09T18:15:40.306Z,5.80
2024-05-09T18:18:09.557Z,7.63
2024-05-09T18:20:43.875Z,9.27
2024-05-09T18:23:16.609Z,8.27
2024-05-09T18:25:46.853Z,8.07
2024-05-09T18:30:44.214Z,9.25
2024-05-09T18:33:13.432Z,8.75
2024-05-09T18:35:45.417Z,8.23
2024-05-09T18:38:14.134Z,24.58
2024-05-09T18:40:44.015Z,23.77
2024-05-09T18:43:14.765Z,29.25
2024-05-09T18:45:43.087Z,34.20
2024-05-09T18:48:12.137Z,38.75
2024-05-09T18:50:41.511Z,32.97
2024-05-09T18:53:12.199Z,27.77
2024-05-09T18:55:41.844Z,24.63
2024-05-09T18:58:10.235Z,32.93
2024-05-09T19:00:41.182Z,36.80
2024-05-09T19:03:13.919Z,57.03
2024-05-09T19:05:44.651Z,31.08
2024-05-09T19:08:15.174Z,31.13
2024-05-09T19:10:45.674Z,45.17
2024-05-09T19:13:15.102Z,41.10
2024-05-09T19:15:44.015Z,42.67
2024-05-09T19:18:17.400Z,29.65
2024-05-09T19:20:45.587Z,42.92
2024-05-09T19:23:14.081Z,33.05
2024-05-09T19:25:42.008Z,49.80
2024-05-09T19:28:10.647Z,37.08
2024-05-09T19:30:41.745Z,47.55
2024-05-09T19:33:13.415Z,35.13
2024-05-09T19:35:42.972Z,44.10
2024-05-09T19:38:12.165Z,47.03
2024-05-09T19:40:40.443Z,39.35
2024-05-09T19:43:09.684Z,46.80
2024-05-09T19:45:38.098Z,48.83
2024-05-09T19:48:07.131Z,35.20
2024-05-09T19:50:41.848Z,40.78
2024-05-09T19:53:13.908Z,30.60
2024-05-09T19:55:42.781Z,28.00
2024-05-09T19:58:12.814Z,38.97
2024-05-09T20:00:43.244Z,43.25
2024-05-09T20:03:16.320Z,39.47
2024-05-09T20:05:47.779Z,29.95
2024-05-09T20:08:17.071Z,31.27
2024-05-09T20:10:45.232Z,41.15
2024-05-09T20:13:14.358Z,40.65
2024-05-09T20:15:42.401Z,36.78
2024-05-09T20:18:11.146Z,32.40
2024-05-09T20:20:42.410Z,31.42
2024-05-09T20:23:13.079Z,22.02
2024-05-09T20:25:41.550Z,23.92
2024-05-09T20:28:10.765Z,22.60
2024-05-09T20:30:39.195Z,31.77
2024-05-09T20:33:08.957Z,98.03
2024-05-09T20:35:37.777Z,55.17
2024-05-09T20:38:06.318Z,24.60
2024-05-09T20:40:37.766Z,25.27
2024-05-09T20:43:11.309Z,28.90
2024-05-09T20:45:40.320Z,28.38
2024-05-09T20:48:10.013Z,27.27
2024-05-09T20:50:41.221Z,20.20
2024-05-09T20:53:12.499Z,19.65
2024-05-09T20:55:41.523Z,25.10
2024-05-09T20:58:10.525Z,25.33
2024-05-09T21:00:42.650Z,27.58
2024-05-09T21:03:16.177Z,22.25
2024-05-09T21:05:45.337Z,29.50
2024-05-09T21:08:13.983Z,34.38
2024-05-09T21:10:42.368Z,30.23
2024-05-09T21:13:10.961Z,25.85
2024-05-09T21:15:39.217Z,34.58
2024-05-09T21:18:08.305Z,32.08
2024-05-09T21:20:37.725Z,32.55
2024-05-09T21:23:06.277Z,21.10
2024-05-09T21:25:34.338Z,30.70
2024-05-09T21:28:02.973Z,24.60
2024-05-09T21:30:38.863Z,18.02
2024-05-09T21:33:12.452Z,13.65
2024-05-09T21:35:42.523Z,11.68
2024-05-09T21:38:11.136Z,7.88
2024-05-09T21:40:39.340Z,9.60
2024-05-09T21:43:08.212Z,11.35
2024-05-09T21:45:37.264Z,7.53
2024-05-09T21:48:06.765Z,11.27
2024-05-09T21:50:40.428Z,13.00
2024-05-09T21:53:11.556Z,15.32
2024-05-09T21:55:39.998Z,13.13
2024-05-09T21:58:08.669Z,11.50
2024-05-09T22:00:39.584Z,17.85
2024-05-09T22:03:08.843Z,16.15
2024-05-09T22:05:39.252Z,12.30
2024-05-09T22:08:07.773Z,11.90
2024-05-09T22:10:37.329Z,11.15
2024-05-09T22:13:06.677Z,14.27
2024-05-09T22:18:04.854Z,13.77
2024-05-09T22:20:37.620Z,10.77
2024-05-09T22:23:08.563Z,10.48
2024-05-09T22:25:38.754Z,11.68
2024-05-09T22:28:07.213Z,14.52
2024-05-09T22:30:39.078Z,11.93
2024-05-09T22:33:10.374Z,10.70
2024-05-09T22:35:41.105Z,14.15
2024-05-09T22:38:09.403Z,8.73
2024-05-09T22:40:46.484Z,15.52
2024-05-09T22:43:18.516Z,12.60
2024-05-09T22:48:15.328Z,20.60
2024-05-09T22:50:44.210Z,35.85
2024-05-09T22:53:12.190Z,30.90
2024-05-09T22:55:40.491Z,27.55
2024-05-09T22:58:08.505Z,16.92
2024-05-09T23:00:37.101Z,15.52
2024-05-09T23:03:05.221Z,13.85
2024-05-09T23:05:33.710Z,10.93
2024-05-09T23:08:02.520Z,8.20
2024-05-09T23:10:36.345Z,6.22
2024-05-09T23:13:09.269Z,8.25
2024-05-09T23:15:38.809Z,9.52
2024-05-09T23:18:07.359Z,11.18
2024-05-09T23:20:38.965Z,5.65
2024-05-09T23:23:08.974Z,9.25
2024-05-09T23:25:38.106Z,6.00
2024-05-09T23:28:06.694Z,7.03
2024-05-09T23:30:38.925Z,8.00
2024-05-09T23:33:10.456Z,8.80
2024-05-09T23:35:39.640Z,8.10
2024-05-09T23:38:07.837Z,5.07
2024-05-09T23:40:39.651Z,6.15
2024-05-09T23:43:10.401Z,8.80
2024-05-09T23:45:39.412Z,8.80
2024-05-09T23:48:07.869Z,5.70
2024-05-09T23:50:38.478Z,6.60
2024-05-09T23:53:09.416Z,7.20
2024-05-09T23:55:38.890Z,5.32
2024-05-09T23:58:07.532Z,7.97
